sensor_id;sensor_type;location;lat;lon;timestamp;pressure;altitude;pressure_sealevel;temperature;humidity
65557;BME280;52200;53.490;14.376;2023-04-24T00:00:15;100327.38;;;7.36;95.24
65557;BME280;52200;53.490;14.376;2023-04-24T00:02:43;100320.69;;;7.33;95.70
65557;BME280;52200;53.490;14.376;2023-04-24T00:05:14;100319.09;;;7.29;94.68
65557;BME280;52200;53.490;14.376;2023-04-24T00:07:43;100311.63;;;7.23;94.84
65557;BME280;52200;53.490;14.376;2023-04-24T00:10:09;100322.72;;;7.16;95.04
65557;BME280;52200;53.490;14.376;2023-04-24T00:12:35;100326.94;;;7.14;94.88
65557;BME280;52200;53.490;14.376;2023-04-24T00:15:02;100320.34;;;7.08;94.80
65557;BME280;52200;53.490;14.376;2023-04-24T00:17:27;100312.03;;;7.01;95.31
65557;BME280;52200;53.490;14.376;2023-04-24T00:19:53;100310.16;;;7.11;96.02
65557;BME280;52200;53.490;14.376;2023-04-24T00:22:27;100304.28;;;7.10;94.78
65557;BME280;52200;53.490;14.376;2023-04-24T00:24:54;100295.97;;;7.05;94.81
65557;BME280;52200;53.490;14.376;2023-04-24T00:27:20;100294.13;;;7.14;95.61
65557;BME280;52200;53.490;14.376;2023-04-24T00:29:45;100289.06;;;7.14;95.15
65557;BME280;52200;53.490;14.376;2023-04-24T00:32:11;100290.69;;;7.18;94.54
65557;BME280;52200;53.490;14.376;2023-04-24T00:34:36;100281.38;;;7.20;94.67
65557;BME280;52200;53.490;14.376;2023-04-24T00:37:02;100283.94;;;7.18;94.51
65557;BME280;52200;53.490;14.376;2023-04-24T00:39:27;100282.22;;;7.19;94.38
65557;BME280;52200;53.490;14.376;2023-04-24T00:41:53;100271.34;;;7.15;94.62
65557;BME280;52200;53.490;14.376;2023-04-24T00:44:18;100267.16;;;7.16;95.23
65557;BME280;52200;53.490;14.376;2023-04-24T00:46:45;100272.25;;;7.13;94.79
65557;BME280;52200;53.490;14.376;2023-04-24T00:49:12;100264.78;;;7.08;95.22
65557;BME280;52200;53.490;14.376;2023-04-24T00:51:37;100256.31;;;7.10;94.46
65557;BME280;52200;53.490;14.376;2023-04-24T00:54:02;100259.03;;;7.00;94.53
65557;BME280;52200;53.490;14.376;2023-04-24T00:56:28;100250.91;;;6.84;94.86
65557;BME280;52200;53.490;14.376;2023-04-24T00:58:54;100256.69;;;6.90;94.64
65557;BME280;52200;53.490;14.376;2023-04-24T01:01:21;100258.34;;;6.93;94.04
65557;BME280;52200;53.490;14.376;2023-04-24T01:03:49;100256.66;;;6.92;93.13
65557;BME280;52200;53.490;14.376;2023-04-24T01:06:16;100250.16;;;6.80;93.03
65557;BME280;52200;53.490;14.376;2023-04-24T01:08:43;100249.56;;;6.67;93.40
65557;BME280;52200;53.490;14.376;2023-04-24T01:11:11;100245.41;;;6.65;93.93
65557;BME280;52200;53.490;14.376;2023-04-24T01:13:37;100251.34;;;6.60;93.61
65557;BME280;52200;53.490;14.376;2023-04-24T01:16:02;100246.38;;;6.56;93.37
65557;BME280;52200;53.490;14.376;2023-04-24T01:18:28;100248.91;;;6.56;93.52
65557;BME280;52200;53.490;14.376;2023-04-24T01:20:57;100238.88;;;6.53;92.71
65557;BME280;52200;53.490;14.376;2023-04-24T01:23:23;100233.94;;;6.47;93.15
65557;BME280;52200;53.490;14.376;2023-04-24T01:25:49;100223.09;;;6.41;92.88
65557;BME280;52200;53.490;14.376;2023-04-24T01:28:16;100224.19;;;6.25;93.14
65557;BME280;52200;53.490;14.376;2023-04-24T01:30:42;100220.06;;;6.21;93.35
65557;BME280;52200;53.490;14.376;2023-04-24T01:33:07;100217.56;;;6.21;93.31
65557;BME280;52200;53.490;14.376;2023-04-24T01:35:33;100210.00;;;6.21;93.63
65557;BME280;52200;53.490;14.376;2023-04-24T01:38:01;100213.31;;;6.23;92.80
65557;BME280;52200;53.490;14.376;2023-04-24T01:40:27;100215.88;;;6.20;93.50
65557;BME280;52200;53.490;14.376;2023-04-24T01:42:52;100206.53;;;6.25;92.65
65557;BME280;52200;53.490;14.376;2023-04-24T01:45:18;100205.69;;;6.27;92.23
65557;BME280;52200;53.490;14.376;2023-04-24T01:47:43;100204.81;;;6.28;91.84
65557;BME280;52200;53.490;14.376;2023-04-24T01:50:10;100203.28;;;6.20;92.51
65557;BME280;52200;53.490;14.376;2023-04-24T01:52:36;100200.19;;;6.04;93.33
65557;BME280;52200;53.490;14.376;2023-04-24T01:55:02;100199.19;;;6.14;92.59
65557;BME280;52200;53.490;14.376;2023-04-24T01:57:30;100200.06;;;6.11;92.53
65557;BME280;52200;53.490;14.376;2023-04-24T01:59:55;100200.00;;;6.15;92.82
65557;BME280;52200;53.490;14.376;2023-04-24T02:02:21;100200.84;;;6.15;91.95
65557;BME280;52200;53.490;14.376;2023-04-24T02:04:51;100193.47;;;6.04;92.04
65557;BME280;52200;53.490;14.376;2023-04-24T02:07:17;100195.13;;;6.05;92.53
65557;BME280;52200;53.490;14.376;2023-04-24T02:09:42;100196.75;;;6.09;91.96
65557;BME280;52200;53.490;14.376;2023-04-24T02:12:08;100188.34;;;6.07;91.86
65557;BME280;52200;53.490;14.376;2023-04-24T02:14:33;100183.56;;;5.92;91.91
65557;BME280;52200;53.490;14.376;2023-04-24T02:16:58;100181.91;;;5.88;91.76
65557;BME280;52200;53.490;14.376;2023-04-24T02:19:24;100176.13;;;5.84;92.43
65557;BME280;52200;53.490;14.376;2023-04-24T02:21:49;100182.59;;;6.01;91.88
65557;BME280;52200;53.490;14.376;2023-04-24T02:24:15;100181.72;;;6.03;91.95
65557;BME280;52200;53.490;14.376;2023-04-24T02:26:41;100172.44;;;6.05;91.64
65557;BME280;52200;53.490;14.376;2023-04-24T02:29:06;100165.75;;;6.03;92.42
65557;BME280;52200;53.490;14.376;2023-04-24T02:31:32;100169.09;;;6.03;92.54
65557;BME280;52200;53.490;14.376;2023-04-24T02:33:57;100164.03;;;6.05;91.91
65557;BME280;52200;53.490;14.376;2023-04-24T02:36:22;100160.84;;;5.93;92.84
65557;BME280;52200;53.490;14.376;2023-04-24T02:38:48;100160.94;;;5.87;93.23
65557;BME280;52200;53.490;14.376;2023-04-24T02:41:13;100159.47;;;5.74;94.70
65557;BME280;52200;53.490;14.376;2023-04-24T02:43:39;100151.78;;;5.83;94.93
65557;BME280;52200;53.490;14.376;2023-04-24T02:46:04;100153.19;;;5.98;94.94
65557;BME280;52200;53.490;14.376;2023-04-24T02:48:30;100150.59;;;6.04;94.56
65557;BME280;52200;53.490;14.376;2023-04-24T02:50:55;100147.34;;;5.99;94.50
65557;BME280;52200;53.490;14.376;2023-04-24T02:53:21;100140.56;;;6.03;93.89
65557;BME280;52200;53.490;14.376;2023-04-24T02:55:46;100121.09;;;6.09;94.52
65557;BME280;52200;53.490;14.376;2023-04-24T02:58:11;100118.50;;;6.14;93.62
65557;BME280;52200;53.490;14.376;2023-04-24T03:00:38;100113.41;;;6.16;93.95
65557;BME280;52200;53.490;14.376;2023-04-24T03:03:04;100112.50;;;6.20;94.16
65557;BME280;52200;53.490;14.376;2023-04-24T03:05:30;100113.19;;;6.28;94.30
65557;BME280;52200;53.490;14.376;2023-04-24T03:07:56;100109.00;;;6.27;94.36
65557;BME280;52200;53.490;14.376;2023-04-24T03:10:22;100112.13;;;6.38;94.70
65557;BME280;52200;53.490;14.376;2023-04-24T03:12:50;100103.47;;;6.52;95.10
65557;BME280;52200;53.490;14.376;2023-04-24T03:15:16;100102.44;;;6.60;95.06
65557;BME280;52200;53.490;14.376;2023-04-24T03:17:41;100099.84;;;6.65;95.43
65557;BME280;52200;53.490;14.376;2023-04-24T03:20:08;100101.47;;;6.68;96.17
65557;BME280;52200;53.490;14.376;2023-04-24T03:22:33;100099.44;;;6.84;96.26
65557;BME280;52200;53.490;14.376;2023-04-24T03:24:59;100097.06;;;6.77;96.60
65557;BME280;52200;53.490;14.376;2023-04-24T03:27:24;100095.16;;;6.87;97.05
65557;BME280;52200;53.490;14.376;2023-04-24T03:29:50;100093.47;;;6.88;97.60
65557;BME280;52200;53.490;14.376;2023-04-24T03:32:20;100091.69;;;6.91;100.00
65557;BME280;52200;53.490;14.376;2023-04-24T03:34:45;100087.81;;;7.16;100.00
65557;BME280;52200;53.490;14.376;2023-04-24T03:37:11;100081.22;;;7.45;100.00
65557;BME280;52200;53.490;14.376;2023-04-24T03:39:36;100080.34;;;7.80;100.00
65557;BME280;52200;53.490;14.376;2023-04-24T03:42:02;100074.47;;;8.11;100.00
65557;BME280;52200;53.490;14.376;2023-04-24T03:44:28;100071.44;;;8.30;100.00
65557;BME280;52200;53.490;14.376;2023-04-24T03:46:53;100072.69;;;8.46;100.00
65557;BME280;52200;53.490;14.376;2023-04-24T03:49:19;100070.72;;;8.56;100.00
65557;BME280;52200;53.490;14.376;2023-04-24T03:51:44;100065.31;;;8.68;100.00
65557;BME280;52200;53.490;14.376;2023-04-24T03:54:09;100072.81;;;8.71;100.00
65557;BME280;52200;53.490;14.376;2023-04-24T03:56:35;100074.38;;;8.76;100.00
65557;BME280;52200;53.490;14.376;2023-04-24T03:59:01;100081.00;;;8.80;100.00
65557;BME280;52200;53.490;14.376;2023-04-24T04:01:26;100076.69;;;8.83;100.00
65557;BME280;52200;53.490;14.376;2023-04-24T04:03:53;100075.56;;;8.92;100.00
65557;BME280;52200;53.490;14.376;2023-04-24T04:06:18;100076.50;;;8.90;100.00
65557;BME280;52200;53.490;14.376;2023-04-24T04:08:44;100076.53;;;8.88;100.00
65557;BME280;52200;53.490;14.376;2023-04-24T04:11:10;100078.88;;;8.94;100.00
65557;BME280;52200;53.490;14.376;2023-04-24T04:13:35;100080.88;;;8.84;100.00
65557;BME280;52200;53.490;14.376;2023-04-24T04:16:01;100085.88;;;8.86;100.00
65557;BME280;52200;53.490;14.376;2023-04-24T04:18:26;100088.56;;;8.81;100.00
65557;BME280;52200;53.490;14.376;2023-04-24T04:20:52;100084.25;;;8.85;100.00
65557;BME280;52200;53.490;14.376;2023-04-24T04:23:17;100078.28;;;8.86;100.00
65557;BME280;52200;53.490;14.376;2023-04-24T04:25:43;100091.03;;;9.11;100.00
65557;BME280;52200;53.490;14.376;2023-04-24T04:28:08;100085.31;;;9.04;100.00
65557;BME280;52200;53.490;14.376;2023-04-24T04:30:33;100078.44;;;8.81;100.00
65557;BME280;52200;53.490;14.376;2023-04-24T04:32:59;100077.91;;;8.98;100.00
65557;BME280;52200;53.490;14.376;2023-04-24T04:35:25;100076.22;;;8.99;100.00
65557;BME280;52200;53.490;14.376;2023-04-24T04:37:50;100070.88;;;8.80;100.00
65557;BME280;52200;53.490;14.376;2023-04-24T04:40:16;100072.09;;;8.96;100.00
65557;BME280;52200;53.490;14.376;2023-04-24T04:42:42;100080.84;;;9.13;100.00
65557;BME280;52200;53.490;14.376;2023-04-24T04:45:11;100077.94;;;9.25;100.00
65557;BME280;52200;53.490;14.376;2023-04-24T04:47:37;100081.47;;;9.46;100.00
65557;BME280;52200;53.490;14.376;2023-04-24T04:50:03;100082.00;;;9.56;100.00
65557;BME280;52200;53.490;14.376;2023-04-24T04:52:29;100077.59;;;9.61;100.00
65557;BME280;52200;53.490;14.376;2023-04-24T04:54:55;100080.81;;;9.92;100.00
65557;BME280;52200;53.490;14.376;2023-04-24T04:57:20;100077.81;;;10.29;100.00
65557;BME280;52200;53.490;14.376;2023-04-24T04:59:46;100081.31;;;10.51;100.00
65557;BME280;52200;53.490;14.376;2023-04-24T05:02:12;100080.25;;;10.56;100.00
65557;BME280;52200;53.490;14.376;2023-04-24T05:04:37;100082.28;;;11.15;100.00
65557;BME280;52200;53.490;14.376;2023-04-24T05:07:03;100069.38;;;11.19;100.00
65557;BME280;52200;53.490;14.376;2023-04-24T05:09:28;100070.97;;;11.22;100.00
65557;BME280;52200;53.490;14.376;2023-04-24T05:11:55;100065.31;;;11.36;100.00
65557;BME280;52200;53.490;14.376;2023-04-24T05:14:21;100075.44;;;10.94;100.00
65557;BME280;52200;53.490;14.376;2023-04-24T05:16:47;100079.97;;;10.86;100.00
65557;BME280;52200;53.490;14.376;2023-04-24T05:19:12;100079.47;;;11.00;100.00
65557;BME280;52200;53.490;14.376;2023-04-24T05:21:39;100070.13;;;10.78;100.00
65557;BME280;52200;53.490;14.376;2023-04-24T05:24:05;100073.44;;;10.80;100.00
65557;BME280;52200;53.490;14.376;2023-04-24T05:26:31;100073.69;;;10.51;100.00
65557;BME280;52200;53.490;14.376;2023-04-24T05:28:56;100075.63;;;10.44;100.00
65557;BME280;52200;53.490;14.376;2023-04-24T05:31:22;100073.72;;;10.25;100.00
65557;BME280;52200;53.490;14.376;2023-04-24T05:33:47;100071.13;;;10.27;100.00
65557;BME280;52200;53.490;14.376;2023-04-24T05:36:13;100067.38;;;10.39;100.00
65557;BME280;52200;53.490;14.376;2023-04-24T05:38:38;100064.25;;;10.54;100.00
65557;BME280;52200;53.490;14.376;2023-04-24T05:41:04;100053.44;;;10.49;100.00
65557;BME280;52200;53.490;14.376;2023-04-24T05:43:29;100053.50;;;10.70;100.00
65557;BME280;52200;53.490;14.376;2023-04-24T05:45:55;100047.31;;;10.77;100.00
65557;BME280;52200;53.490;14.376;2023-04-24T05:48:20;100058.66;;;10.90;100.00
65557;BME280;52200;53.490;14.376;2023-04-24T05:50:47;100056.88;;;10.92;100.00
65557;BME280;52200;53.490;14.376;2023-04-24T05:53:13;100061.47;;;10.83;100.00
65557;BME280;52200;53.490;14.376;2023-04-24T05:55:38;100059.72;;;10.62;100.00
65557;BME280;52200;53.490;14.376;2023-04-24T05:58:04;100054.28;;;10.72;100.00
65557;BME280;52200;53.490;14.376;2023-04-24T06:00:30;100055.13;;;10.72;100.00
65557;BME280;52200;53.490;14.376;2023-04-24T06:02:55;100052.88;;;10.64;100.00
65557;BME280;52200;53.490;14.376;2023-04-24T06:05:21;100061.94;;;10.48;100.00
65557;BME280;52200;53.490;14.376;2023-04-24T06:07:47;100061.69;;;10.54;100.00
65557;BME280;52200;53.490;14.376;2023-04-24T06:10:13;100053.66;;;10.43;100.00
65557;BME280;52200;53.490;14.376;2023-04-24T06:12:39;100056.63;;;10.54;100.00
65557;BME280;52200;53.490;14.376;2023-04-24T06:15:05;100054.53;;;10.42;100.00
65557;BME280;52200;53.490;14.376;2023-04-24T06:17:31;100054.53;;;10.42;100.00
65557;BME280;52200;53.490;14.376;2023-04-24T06:19:57;100050.38;;;10.41;100.00
65557;BME280;52200;53.490;14.376;2023-04-24T06:22:22;100061.13;;;10.92;100.00
65557;BME280;52200;53.490;14.376;2023-04-24T06:24:48;100064.41;;;11.16;100.00
65557;BME280;52200;53.490;14.376;2023-04-24T06:27:13;100068.22;;;11.06;100.00
65557;BME280;52200;53.490;14.376;2023-04-24T06:29:39;100066.22;;;10.92;100.00
65557;BME280;52200;53.490;14.376;2023-04-24T06:32:05;100068.25;;;11.26;100.00
65557;BME280;52200;53.490;14.376;2023-04-24T06:34:30;100062.28;;;11.69;100.00
65557;BME280;52200;53.490;14.376;2023-04-24T06:36:57;100065.28;;;11.99;100.00
65557;BME280;52200;53.490;14.376;2023-04-24T06:39:23;100061.69;;;12.61;100.00
65557;BME280;52200;53.490;14.376;2023-04-24T06:41:48;100053.91;;;12.64;99.37
65557;BME280;52200;53.490;14.376;2023-04-24T06:44:14;100060.13;;;12.95;97.49
65557;BME280;52200;53.490;14.376;2023-04-24T06:46:41;100060.53;;;13.04;96.46
65557;BME280;52200;53.490;14.376;2023-04-24T06:49:06;100056.41;;;13.37;94.25
65557;BME280;52200;53.490;14.376;2023-04-24T06:51:31;100049.03;;;13.66;93.56
65557;BME280;52200;53.490;14.376;2023-04-24T06:53:58;100049.75;;;13.85;91.69
65557;BME280;52200;53.490;14.376;2023-04-24T06:56:23;100050.19;;;13.94;90.89
65557;BME280;52200;53.490;14.376;2023-04-24T06:58:50;100048.84;;;13.86;90.69
65557;BME280;52200;53.490;14.376;2023-04-24T07:01:16;100049.81;;;14.17;89.14
65557;BME280;52200;53.490;14.376;2023-04-24T07:03:41;100054.34;;;14.44;88.52
65557;BME280;52200;53.490;14.376;2023-04-24T07:06:07;100048.41;;;14.28;89.27
65557;BME280;52200;53.490;14.376;2023-04-24T07:08:33;100052.69;;;14.11;89.16
65557;BME280;52200;53.490;14.376;2023-04-24T07:10:59;100052.13;;;14.54;87.96
65557;BME280;52200;53.490;14.376;2023-04-24T07:13:25;100056.50;;;14.68;86.38
65557;BME280;52200;53.490;14.376;2023-04-24T07:15:51;100057.81;;;14.43;87.11
65557;BME280;52200;53.490;14.376;2023-04-24T07:18:19;100050.28;;;14.08;88.39
65557;BME280;52200;53.490;14.376;2023-04-24T07:20:45;100041.81;;;13.74;88.83
65557;BME280;52200;53.490;14.376;2023-04-24T07:23:10;100045.25;;;14.07;88.19
65557;BME280;52200;53.490;14.376;2023-04-24T07:25:35;100047.19;;;13.85;88.40
65557;BME280;52200;53.490;14.376;2023-04-24T07:28:01;100052.69;;;14.11;88.67
65557;BME280;52200;53.490;14.376;2023-04-24T07:30:26;100053.75;;;14.39;88.52
65557;BME280;52200;53.490;14.376;2023-04-24T07:32:54;100055.03;;;14.48;86.64
65557;BME280;52200;53.490;14.376;2023-04-24T07:35:20;100052.50;;;14.94;85.38
65557;BME280;52200;53.490;14.376;2023-04-24T07:37:45;100049.06;;;15.26;84.43
65557;BME280;52200;53.490;14.376;2023-04-24T07:40:13;100053.03;;;14.53;85.20
65557;BME280;52200;53.490;14.376;2023-04-24T07:42:39;100051.63;;;14.63;83.59
65557;BME280;52200;53.490;14.376;2023-04-24T07:45:05;100053.78;;;14.71;84.98
65557;BME280;52200;53.490;14.376;2023-04-24T07:47:32;100058.31;;;14.82;83.41
65557;BME280;52200;53.490;14.376;2023-04-24T07:49:57;100060.69;;;15.01;84.58
65557;BME280;52200;53.490;14.376;2023-04-24T07:52:23;100057.47;;;15.42;82.41
65557;BME280;52200;53.490;14.376;2023-04-24T07:54:49;100053.03;;;15.15;82.19
65557;BME280;52200;53.490;14.376;2023-04-24T07:57:15;100055.22;;;15.22;81.51
65557;BME280;52200;53.490;14.376;2023-04-24T07:59:41;100046.31;;;15.29;81.68
65557;BME280;52200;53.490;14.376;2023-04-24T08:02:07;100050.81;;;15.54;80.98
65557;BME280;52200;53.490;14.376;2023-04-24T08:04:32;100058.78;;;15.78;82.47
65557;BME280;52200;53.490;14.376;2023-04-24T08:06:58;100063.47;;;15.72;80.83
65557;BME280;52200;53.490;14.376;2023-04-24T08:09:23;100071.59;;;16.07;78.98
65557;BME280;52200;53.490;14.376;2023-04-24T08:11:49;100061.34;;;16.22;77.88
65557;BME280;52200;53.490;14.376;2023-04-24T08:14:15;100067.09;;;16.40;78.73
65557;BME280;52200;53.490;14.376;2023-04-24T08:16:40;100063.31;;;16.04;77.72
65557;BME280;52200;53.490;14.376;2023-04-24T08:19:06;100063.38;;;16.17;78.81
65557;BME280;52200;53.490;14.376;2023-04-24T08:21:32;100068.94;;;16.23;78.32
65557;BME280;52200;53.490;14.376;2023-04-24T08:23:57;100066.63;;;16.48;76.04
65557;BME280;52200;53.490;14.376;2023-04-24T08:26:23;100075.56;;;16.97;75.34
65557;BME280;52200;53.490;14.376;2023-04-24T08:28:49;100065.84;;;17.15;75.08
65557;BME280;52200;53.490;14.376;2023-04-24T08:31:14;100060.09;;;17.24;73.25
65557;BME280;52200;53.490;14.376;2023-04-24T08:33:40;100070.56;;;17.21;73.47
65557;BME280;52200;53.490;14.376;2023-04-24T08:36:06;100071.19;;;17.12;75.48
65557;BME280;52200;53.490;14.376;2023-04-24T08:38:33;100068.06;;;17.06;73.29
65557;BME280;52200;53.490;14.376;2023-04-24T08:40:59;100076.09;;;17.15;72.97
65557;BME280;52200;53.490;14.376;2023-04-24T08:43:26;100072.78;;;17.00;72.80
65557;BME280;52200;53.490;14.376;2023-04-24T08:45:53;100064.06;;;17.02;73.18
65557;BME280;52200;53.490;14.376;2023-04-24T08:48:22;100070.22;;;17.00;72.86
65557;BME280;52200;53.490;14.376;2023-04-24T08:50:48;100068.69;;;16.83;73.10
65557;BME280;52200;53.490;14.376;2023-04-24T08:53:17;100068.41;;;17.15;73.84
65557;BME280;52200;53.490;14.376;2023-04-24T08:55:47;100063.41;;;17.52;74.21
65557;BME280;52200;53.490;14.376;2023-04-24T08:58:13;100068.97;;;17.97;72.12
65557;BME280;52200;53.490;14.376;2023-04-24T09:00:39;100073.06;;;18.00;73.96
65557;BME280;52200;53.490;14.376;2023-04-24T09:03:05;100073.69;;;17.52;71.85
65557;BME280;52200;53.490;14.376;2023-04-24T09:05:32;100070.91;;;17.42;72.78
65557;BME280;52200;53.490;14.376;2023-04-24T09:07:59;100078.78;;;17.26;74.31
65557;BME280;52200;53.490;14.376;2023-04-24T09:10:27;100060.53;;;17.31;72.94
65557;BME280;52200;53.490;14.376;2023-04-24T09:12:56;100055.47;;;18.07;73.96
65557;BME280;52200;53.490;14.376;2023-04-24T09:15:24;100064.13;;;18.67;70.18
65557;BME280;52200;53.490;14.376;2023-04-24T09:17:50;100063.19;;;18.07;68.42
65557;BME280;52200;53.490;14.376;2023-04-24T09:20:15;100052.72;;;17.71;68.72
65557;BME280;52200;53.490;14.376;2023-04-24T09:22:42;100058.38;;;17.63;68.82
65557;BME280;52200;53.490;14.376;2023-04-24T09:25:09;100060.22;;;17.48;70.50
65557;BME280;52200;53.490;14.376;2023-04-24T09:27:41;100062.47;;;17.27;69.99
65557;BME280;52200;53.490;14.376;2023-04-24T09:30:07;100071.09;;;17.26;68.98
65557;BME280;52200;53.490;14.376;2023-04-24T09:32:33;100064.34;;;16.98;70.63
65557;BME280;52200;53.490;14.376;2023-04-24T09:35:17;100062.34;;;17.16;70.86
65557;BME280;52200;53.490;14.376;2023-04-24T09:37:45;100066.50;;;17.44;69.42
65557;BME280;52200;53.490;14.376;2023-04-24T09:40:18;100066.69;;;17.80;69.10
65557;BME280;52200;53.490;14.376;2023-04-24T09:42:50;100060.09;;;18.14;69.46
65557;BME280;52200;53.490;14.376;2023-04-24T09:45:16;100059.00;;;18.43;67.72
65557;BME280;52200;53.490;14.376;2023-04-24T09:47:42;100052.72;;;18.34;66.33
65557;BME280;52200;53.490;14.376;2023-04-24T09:50:15;100057.50;;;18.76;67.16
65557;BME280;52200;53.490;14.376;2023-04-24T09:52:43;100055.84;;;18.75;65.78
65557;BME280;52200;53.490;14.376;2023-04-24T09:55:14;100060.75;;;18.66;65.25
65557;BME280;52200;53.490;14.376;2023-04-24T09:58:07;100053.72;;;18.44;65.69
65557;BME280;52200;53.490;14.376;2023-04-24T10:00:33;100055.41;;;18.32;65.06
65557;BME280;52200;53.490;14.376;2023-04-24T10:02:59;100052.09;;;18.06;67.70
65557;BME280;52200;53.490;14.376;2023-04-24T10:05:28;100050.91;;;18.23;65.92
65557;BME280;52200;53.490;14.376;2023-04-24T10:08:10;100052.88;;;18.44;66.00
65557;BME280;52200;53.490;14.376;2023-04-24T10:10:39;100054.31;;;18.72;68.79
65557;BME280;52200;53.490;14.376;2023-04-24T10:13:05;100059.50;;;19.08;65.42
65557;BME280;52200;53.490;14.376;2023-04-24T10:15:32;100048.38;;;19.88;64.21
65557;BME280;52200;53.490;14.376;2023-04-24T10:17:59;100052.78;;;19.29;63.24
65557;BME280;52200;53.490;14.376;2023-04-24T10:20:27;100048.41;;;18.83;63.60
65557;BME280;52200;53.490;14.376;2023-04-24T10:22:55;100052.69;;;18.95;62.42
65557;BME280;52200;53.490;14.376;2023-04-24T10:25:32;100058.22;;;18.78;62.42
65557;BME280;52200;53.490;14.376;2023-04-24T10:27:58;100054.16;;;18.38;63.91
65557;BME280;52200;53.490;14.376;2023-04-24T10:30:37;100043.41;;;18.20;63.45
65557;BME280;52200;53.490;14.376;2023-04-24T10:33:04;100044.56;;;18.16;64.62
65557;BME280;52200;53.490;14.376;2023-04-24T10:35:31;100049.00;;;18.62;63.51
65557;BME280;52200;53.490;14.376;2023-04-24T10:38:13;100051.47;;;19.12;61.82
65557;BME280;52200;53.490;14.376;2023-04-24T10:40:39;100049.06;;;19.68;60.49
65557;BME280;52200;53.490;14.376;2023-04-24T10:43:06;100048.38;;;19.54;60.16
65557;BME280;52200;53.490;14.376;2023-04-24T10:45:33;100048.97;;;19.69;60.86
65557;BME280;52200;53.490;14.376;2023-04-24T10:48:01;100055.63;;;19.72;58.91
65557;BME280;52200;53.490;14.376;2023-04-24T10:50:29;100057.81;;;19.20;60.52
65557;BME280;52200;53.490;14.376;2023-04-24T10:53:06;100053.03;;;19.49;58.33
65557;BME280;52200;53.490;14.376;2023-04-24T10:55:47;100042.44;;;19.88;59.09
65557;BME280;52200;53.490;14.376;2023-04-24T10:58:14;100047.44;;;20.01;59.00
65557;BME280;52200;53.490;14.376;2023-04-24T11:00:42;100046.94;;;19.39;57.25
65557;BME280;52200;53.490;14.376;2023-04-24T11:03:34;100062.34;;;19.16;59.08
65557;BME280;52200;53.490;14.376;2023-04-24T11:06:07;100051.97;;;19.40;59.46
65557;BME280;52200;53.490;14.376;2023-04-24T11:08:43;100053.25;;;19.23;59.17
65557;BME280;52200;53.490;14.376;2023-04-24T11:11:13;100057.75;;;20.23;57.66
65557;BME280;52200;53.490;14.376;2023-04-24T11:16:38;100049.56;;;20.51;54.13
65557;BME280;52200;53.490;14.376;2023-04-24T11:19:17;100051.81;;;19.89;56.24
65557;BME280;52200;53.490;14.376;2023-04-24T11:22:02;100050.84;;;20.12;57.15
65557;BME280;52200;53.490;14.376;2023-04-24T11:27:20;100047.53;;;20.10;56.80
65557;BME280;52200;53.490;14.376;2023-04-24T11:35:13;100056.41;;;18.67;58.45
65557;BME280;52200;53.490;14.376;2023-04-24T11:37:40;100065.88;;;17.92;62.85
65557;BME280;52200;53.490;14.376;2023-04-24T11:40:08;100069.59;;;17.62;64.55
65557;BME280;52200;53.490;14.376;2023-04-24T11:42:38;100075.63;;;16.95;64.98
65557;BME280;52200;53.490;14.376;2023-04-24T11:45:08;100083.53;;;16.65;69.73
65557;BME280;52200;53.490;14.376;2023-04-24T11:47:35;100079.47;;;16.88;71.55
65557;BME280;52200;53.490;14.376;2023-04-24T11:50:01;100081.28;;;16.73;74.92
65557;BME280;52200;53.490;14.376;2023-04-24T11:52:27;100077.38;;;16.67;77.05
65557;BME280;52200;53.490;14.376;2023-04-24T11:54:53;100066.22;;;16.54;78.76
65557;BME280;52200;53.490;14.376;2023-04-24T11:57:19;100061.31;;;16.78;80.38
65557;BME280;52200;53.490;14.376;2023-04-24T11:59:45;100067.41;;;17.30;79.00
65557;BME280;52200;53.490;14.376;2023-04-24T12:02:25;100065.25;;;17.76;77.51
65557;BME280;52200;53.490;14.376;2023-04-24T12:04:54;100063.16;;;18.19;77.94
65557;BME280;52200;53.490;14.376;2023-04-24T12:07:21;100060.16;;;18.50;76.41
65557;BME280;52200;53.490;14.376;2023-04-24T12:09:57;100064.94;;;19.27;73.22
65557;BME280;52200;53.490;14.376;2023-04-24T12:12:26;100051.16;;;19.62;71.01
65557;BME280;52200;53.490;14.376;2023-04-24T12:14:56;100052.63;;;18.84;72.33
65557;BME280;52200;53.490;14.376;2023-04-24T12:17:32;100046.22;;;18.65;73.36
65557;BME280;52200;53.490;14.376;2023-04-24T12:20:00;100045.53;;;19.35;72.57
65557;BME280;52200;53.490;14.376;2023-04-24T12:22:26;100034.84;;;19.28;71.49
65557;BME280;52200;53.490;14.376;2023-04-24T12:25:02;100031.63;;;20.49;69.44
65557;BME280;52200;53.490;14.376;2023-04-24T12:27:32;100033.91;;;20.75;63.46
65557;BME280;52200;53.490;14.376;2023-04-24T12:29:59;100030.63;;;20.73;64.37
65557;BME280;52200;53.490;14.376;2023-04-24T12:32:25;100030.41;;;20.32;65.08
65557;BME280;52200;53.490;14.376;2023-04-24T12:34:51;100024.59;;;19.62;62.30
65557;BME280;52200;53.490;14.376;2023-04-24T12:37:17;100023.03;;;19.37;66.87
65557;BME280;52200;53.490;14.376;2023-04-24T12:40:06;100029.22;;;19.11;65.76
65557;BME280;52200;53.490;14.376;2023-04-24T12:42:32;100024.09;;;19.34;66.45
65557;BME280;52200;53.490;14.376;2023-04-24T12:45:06;100020.25;;;19.40;66.67
65557;BME280;52200;53.490;14.376;2023-04-24T12:47:32;100016.25;;;19.81;65.40
65557;BME280;52200;53.490;14.376;2023-04-24T12:49:59;100015.59;;;18.98;65.60